Time;durP1;ratioP1;P1;durP2;ratioP2;P2;SDS_P1;SDS_P2;PMS_P1;PMS_P2;Temp;Humidity;BMP_temperature;BMP_pressure;BME280_temperature;BME280_humidity;BME280_pressure;Samples;Min_cycle;Max_cycle;Signal;HPM_P1;HPM_P2
2023/06/07 00:00:44;;;;;;;6.10;4.90;;;;;;;18.96;nan;99401.94;5015257;28;20472;-81
2023/06/07 00:03:09;;;;;;;6.10;5.60;;;;;;;18.97;nan;99400.94;5016342;28;20217;-81
2023/06/07 00:05:38;;;;;;;5.60;5.10;;;;;;;18.97;nan;99400.94;5015378;28;20449;-82
2023/06/07 00:08:05;;;;;;;5.83;5.00;;;;;;;18.91;nan;99407.72;5016038;28;20800;-80
2023/06/07 00:10:33;;;;;;;5.43;4.93;;;;;;;18.87;nan;99408.19;5016236;28;20587;-81
2023/06/07 00:12:59;;;;;;;6.23;4.80;;;;;;;18.85;nan;99408.34;5013947;28;20618;-83
2023/06/07 00:15:24;;;;;;;5.37;4.87;;;;;;;18.78;nan;99415.28;5016604;28;20443;-81
2023/06/07 00:17:50;;;;;;;5.20;4.70;;;;;;;18.73;nan;99415.69;5014261;28;20440;-80
2023/06/07 00:20:15;;;;;;;8.10;5.00;;;;;;;18.71;nan;99411.53;5013220;28;20536;-82
2023/06/07 00:22:41;;;;;;;6.73;5.13;;;;;;;18.69;nan;99411.69;5013230;28;20220;-81
2023/06/07 00:25:08;;;;;;;4.93;4.43;;;;;;;18.65;nan;99412.97;5014575;28;20437;-81
2023/06/07 00:27:34;;;;;;;5.00;4.50;;;;;;;18.58;nan;99419.94;5014575;28;20249;-80
2023/06/07 00:30:00;;;;;;;5.40;4.80;;;;;;;18.51;nan;99417.03;4997092;28;20458;-82
2023/06/07 00:32:25;;;;;;;5.40;4.90;;;;;;;18.43;nan;99413.47;5016261;28;21092;-80
2023/06/07 00:34:51;;;;;;;6.43;5.40;;;;;;;18.37;nan;99414.91;5015488;28;20444;-83
2023/06/07 00:37:16;;;;;;;5.50;4.93;;;;;;;18.30;nan;99419.16;5014596;28;20223;-83
2023/06/07 00:39:42;;;;;;;5.20;4.80;;;;;;;18.26;nan;99418.63;4999275;28;20655;-81
2023/06/07 00:42:08;;;;;;;5.90;5.30;;;;;;;18.24;nan;99415.28;5016992;28;21071;-82
2023/06/07 00:44:33;;;;;;;5.60;4.87;;;;;;;18.24;nan;99415.28;4998531;28;20221;-81
2023/06/07 00:47:00;;;;;;;5.53;5.03;;;;;;;18.24;nan;99407.31;4998136;28;20301;-81
2023/06/07 00:49:26;;;;;;;5.27;4.70;;;;;;;18.23;nan;99412.78;5015589;28;20318;-81
2023/06/07 00:51:52;;;;;;;6.50;5.30;;;;;;;18.18;nan;99415.91;5016335;28;20987;-81
2023/06/07 00:54:18;;;;;;;5.27;4.77;;;;;;;18.09;nan;99427.41;5000776;28;20224;-81
2023/06/07 00:56:50;;;;;;;5.43;5.03;;;;;;;18.03;nan;99423.53;4999522;28;21014;-83
2023/06/07 00:59:18;;;;;;;4.87;4.47;;;;;;;18.01;nan;99425.53;4996887;28;20216;-81
2023/06/07 01:01:44;;;;;;;6.70;5.07;;;;;;;18.00;nan;99423.84;5015049;28;20453;-81
2023/06/07 01:04:10;;;;;;;7.70;5.57;;;;;;;17.92;nan;99427.25;4997830;28;20456;-81
2023/06/07 01:06:37;;;;;;;6.00;5.50;;;;;;;17.90;nan;99434.56;4998306;28;20508;-84
2023/06/07 01:09:13;;;;;;;6.60;4.90;;;;;;;17.89;nan;99418.75;4997468;28;20259;-84
2023/06/07 01:11:42;;;;;;;5.93;5.20;;;;;;;17.92;nan;99427.25;5018531;28;20498;-83
2023/06/07 01:14:10;;;;;;;5.83;5.23;;;;;;;17.97;nan;99425.97;5001969;28;20494;-80
2023/06/07 01:16:37;;;;;;;6.30;5.70;;;;;;;17.94;nan;99423.63;5001091;28;20447;-80
2023/06/07 01:19:04;;;;;;;7.30;6.13;;;;;;;17.80;nan;99415.16;5018776;28;20442;-80
2023/06/07 01:21:33;;;;;;;6.43;5.20;;;;;;;17.69;nan;99425.97;5016575;28;20522;-80
2023/06/07 01:23:59;;;;;;;5.07;4.60;;;;;;;17.58;nan;99429.66;5017450;28;20471;-80
2023/06/07 01:26:28;;;;;;;6.67;6.07;;;;;;;17.50;nan;99426.03;5017690;28;21173;-80
2023/06/07 01:28:55;;;;;;;6.90;5.50;;;;;;;17.40;nan;99428.75;5017185;28;20466;-80
2023/06/07 01:31:25;;;;;;;10.40;5.50;;;;;;;17.38;nan;99428.03;4999087;28;20533;-80
2023/06/07 01:33:51;;;;;;;9.73;5.67;;;;;;;17.40;nan;99423.44;5001094;28;20577;-80
2023/06/07 01:36:18;;;;;;;6.67;6.03;;;;;;;17.42;nan;99426.78;5017621;28;20430;-80
2023/06/07 01:38:46;;;;;;;5.80;5.30;;;;;;;17.42;nan;99424.13;5017366;28;20455;-80
2023/06/07 01:41:15;;;;;;;6.73;6.07;;;;;;;17.45;nan;99429.16;5017498;28;20468;-80
2023/06/07 01:43:40;;;;;;;5.23;4.73;;;;;;;17.41;nan;99417.13;5014809;28;21057;-81
2023/06/07 01:46:06;;;;;;;6.37;5.40;;;;;;;17.42;nan;99419.66;5018115;28;20558;-80
2023/06/07 01:48:31;;;;;;;6.90;5.50;;;;;;;17.45;nan;99422.00;5017960;28;20212;-80
2023/06/07 01:50:57;;;;;;;7.60;5.70;;;;;;;17.45;nan;99423.84;5001309;28;20226;-80
2023/06/07 01:53:22;;;;;;;5.87;5.33;;;;;;;17.43;nan;99425.78;5017912;28;20312;-80
2023/06/07 01:56:07;;;;;;;5.73;5.17;;;;;;;17.43;nan;99421.31;5017478;28;20194;-81
2023/06/07 01:58:51;;;;;;;6.63;5.80;;;;;;;17.44;nan;99407.06;4999444;28;21020;-80
2023/06/07 02:01:26;;;;;;;6.00;5.50;;;;;;;17.45;nan;99424.66;4999903;28;20538;-80
2023/06/07 02:03:54;;;;;;;5.43;4.97;;;;;;;17.51;nan;99425.91;5018705;28;20980;-80
2023/06/07 02:06:32;;;;;;;6.32;5.72;;;;;;;17.60;nan;99422.34;5015853;28;20436;-80
2023/06/07 02:09:03;;;;;;;8.77;5.77;;;;;;;17.62;nan;99423.03;4998092;28;21184;-80
2023/06/07 02:11:30;;;;;;;7.27;5.30;;;;;;;17.61;nan;99420.56;5017023;28;20484;-80
2023/06/07 02:13:56;;;;;;;6.40;5.30;;;;;;;17.62;nan;99431.00;5016125;28;20548;-80
2023/06/07 02:16:37;;;;;;;5.13;4.73;;;;;;;17.63;nan;99431.84;5016660;28;20486;-80
2023/06/07 02:19:07;;;;;;;6.23;5.63;;;;;;;17.62;nan;99431.00;4997605;28;20306;-80
2023/06/07 02:21:36;;;;;;;7.13;5.43;;;;;;;17.61;nan;99428.53;5015521;28;20473;-81
2023/06/07 02:24:03;;;;;;;6.40;5.80;;;;;;;17.59;nan;99430.47;4993665;28;20461;-80
2023/06/07 02:26:29;;;;;;;7.40;6.00;;;;;;;17.56;nan;99433.44;4996756;28;20484;-80
2023/06/07 02:28:55;;;;;;;6.90;6.30;;;;;;;17.54;nan;99430.09;5013776;28;21010;-81
2023/06/07 02:31:20;;;;;;;5.70;5.20;;;;;;;17.48;nan;99426.19;5012215;28;20484;-80
2023/06/07 02:33:47;;;;;;;6.90;6.10;;;;;;;17.46;nan;99433.47;5014586;28;20557;-80
2023/06/07 02:36:14;;;;;;;6.13;5.63;;;;;;;17.42;nan;99430.28;4997205;28;20205;-80
2023/06/07 02:38:40;;;;;;;5.63;5.23;;;;;;;17.38;nan;99434.19;5013714;28;20474;-80
2023/06/07 02:41:05;;;;;;;7.73;5.67;;;;;;;17.31;nan;99441.06;5012736;28;20267;-80
2023/06/07 02:43:30;;;;;;;6.23;5.63;;;;;;;17.24;nan;99437.31;5012839;28;20253;-80
2023/06/07 02:45:56;;;;;;;6.60;5.57;;;;;;;17.21;nan;99442.91;5014125;28;20216;-80
2023/06/07 02:48:21;;;;;;;6.80;5.53;;;;;;;17.19;nan;99445.69;5012011;28;20817;-80
2023/06/07 02:50:47;;;;;;;6.37;5.40;;;;;;;17.13;nan;99442.81;4996313;28;20229;-80
2023/06/07 02:53:13;;;;;;;7.63;6.00;;;;;;;17.10;nan;99435.13;4998056;28;20490;-80
2023/06/07 02:55:39;;;;;;;7.70;5.70;;;;;;;17.09;nan;99434.25;4996735;28;20219;-80
2023/06/07 02:58:05;;;;;;;6.27;5.70;;;;;;;17.07;nan;99441.56;5012784;28;20216;-80
2023/06/07 03:00:33;;;;;;;6.43;5.83;;;;;;;17.10;nan;99435.13;4997115;28;20697;-80
2023/06/07 03:03:07;;;;;;;6.87;6.33;;;;;;;17.09;nan;99446.72;4997573;28;20579;-80
2023/06/07 03:05:36;;;;;;;6.53;5.93;;;;;;;17.08;nan;99445.88;4997311;28;20425;-80
2023/06/07 03:08:10;;;;;;;6.33;5.73;;;;;;;17.09;nan;99434.25;4998185;28;20373;-80
2023/06/07 03:10:36;;;;;;;7.00;6.30;;;;;;;17.08;nan;99442.38;4996345;28;20471;-80
2023/06/07 03:13:04;;;;;;;6.87;6.07;;;;;;;17.07;nan;99440.72;4997249;28;20576;-81
2023/06/07 03:15:30;;;;;;;7.20;5.90;;;;;;;17.05;nan;99446.16;4996303;28;20520;-80
2023/06/07 03:17:55;;;;;;;6.13;5.63;;;;;;;17.05;nan;99445.34;4999166;28;21031;-80
2023/06/07 03:20:22;;;;;;;6.40;5.80;;;;;;;17.05;nan;99446.16;4997938;28;20271;-78
2023/06/07 03:22:50;;;;;;;6.33;5.73;;;;;;;17.07;nan;99444.22;5015195;28;20508;-79
2023/06/07 03:25:16;;;;;;;6.70;6.10;;;;;;;17.09;nan;99444.88;5013306;28;20463;-80
2023/06/07 03:27:43;;;;;;;6.57;5.97;;;;;;;17.11;nan;99447.41;4997467;28;20211;-80
2023/06/07 03:30:20;;;;;;;6.43;5.47;;;;;;;17.16;nan;99445.16;4997298;28;20509;-80
2023/06/07 03:32:46;;;;;;;6.30;5.70;;;;;;;17.19;nan;99447.53;4996608;28;20548;-79
2023/06/07 03:35:12;;;;;;;6.33;5.73;;;;;;;17.15;nan;99451.47;4996988;28;20226;-80
2023/06/07 03:37:39;;;;;;;6.90;6.27;;;;;;;17.06;nan;99458.44;5013418;28;20205;-80
2023/06/07 03:40:05;;;;;;;7.27;6.20;;;;;;;16.98;nan;99448.53;4999176;28;20504;-79
2023/06/07 03:42:31;;;;;;;8.53;6.10;;;;;;;16.93;nan;99447.28;4997970;28;20666;-80
2023/06/07 03:44:56;;;;;;;7.37;6.67;;;;;;;16.90;nan;99456.38;4999065;28;20549;-80
2023/06/07 03:47:22;;;;;;;6.00;5.50;;;;;;;16.89;nan;99451.22;4997172;28;20188;-80
2023/06/07 03:49:47;;;;;;;6.10;5.23;;;;;;;16.88;nan;99453.03;5015169;28;20221;-79
2023/06/07 03:52:13;;;;;;;6.67;6.07;;;;;;;16.87;nan;99450.53;4998085;28;20210;-79
2023/06/07 03:54:38;;;;;;;6.10;5.60;;;;;;;16.87;nan;99446.03;4998300;28;20204;-80
2023/06/07 03:57:06;;;;;;;6.83;6.23;;;;;;;16.84;nan;99448.16;4996726;28;20244;-80
2023/06/07 03:59:34;;;;;;;6.60;6.00;;;;;;;16.81;nan;99446.63;4997920;28;20215;-79
2023/06/07 04:02:00;;;;;;;7.50;5.50;;;;;;;16.82;nan;99453.59;4996047;28;20469;-79
2023/06/07 04:04:27;;;;;;;7.50;6.40;;;;;;;16.83;nan;99452.63;4994443;28;20457;-79
2023/06/07 04:06:57;;;;;;;7.80;6.10;;;;;;;16.86;nan;99454.16;5012736;28;20686;-79
2023/06/07 04:09:23;;;;;;;6.40;5.87;;;;;;;16.85;nan;99455.97;4992717;28;20454;-79
2023/06/07 04:11:49;;;;;;;7.43;6.43;;;;;;;16.85;nan;99455.97;5012186;28;20465;-79
2023/06/07 04:14:15;;;;;;;6.57;5.97;;;;;;;16.83;nan;99452.63;4994755;28;20208;-79
2023/06/07 04:16:40;;;;;;;7.37;6.67;;;;;;;16.80;nan;99459.06;4994915;28;20462;-79
2023/06/07 04:19:06;;;;;;;6.67;6.03;;;;;;;16.81;nan;99458.06;4993457;28;20207;-79
2023/06/07 04:21:33;;;;;;;7.20;6.50;;;;;;;16.85;nan;99455.13;4991633;28;20217;-79
2023/06/07 04:24:01;;;;;;;8.67;6.47;;;;;;;16.85;nan;99453.34;4991852;28;20467;-79
2023/06/07 04:26:29;;;;;;;6.83;6.27;;;;;;;16.87;nan;99456.66;4993258;28;20477;-79
2023/06/07 04:28:56;;;;;;;8.40;7.53;;;;;;;16.89;nan;99465.31;4994974;28;20463;-79
2023/06/07 04:31:29;;;;;;;10.83;7.87;;;;;;;16.91;nan;99458.06;4992263;28;20481;-79
2023/06/07 04:34:01;;;;;;;9.90;6.90;;;;;;;16.96;nan;99455.00;4994633;28;20531;-79
2023/06/07 04:36:28;;;;;;;8.32;7.53;;;;;;;17.09;nan;99465.28;4993266;28;20997;-79
2023/06/07 04:38:58;;;;;;;7.03;6.40;;;;;;;17.14;nan;99455.06;4993177;28;20216;-79
2023/06/07 04:41:32;;;;;;;8.30;6.10;;;;;;;17.21;nan;99454.38;4993022;28;21648;-79
2023/06/07 04:44:03;;;;;;;6.93;6.23;;;;;;;17.33;nan;99454.19;4992012;28;20555;-79
2023/06/07 04:46:32;;;;;;;6.83;6.33;;;;;;;17.50;nan;99455.25;4994270;28;20467;-79
2023/06/07 04:48:59;;;;;;;6.90;6.20;;;;;;;17.78;nan;99456.94;4992099;28;20552;-79
2023/06/07 04:51:29;;;;;;;7.10;6.60;;;;;;;18.22;nan;99454.47;4993571;28;20469;-80
2023/06/07 04:54:04;;;;;;;9.53;7.23;;;;;;;18.69;nan;99456.94;5011786;28;20474;-80
2023/06/07 04:56:34;;;;;;;7.83;7.13;;;;;;;19.19;nan;99458.16;5008659;28;20505;-79
2023/06/07 04:59:01;;;;;;;14.00;6.83;;;;;;;19.70;nan;99460.97;4993182;28;21085;-80
2023/06/07 05:01:33;;;;;;;11.30;6.50;;;;;;;20.16;nan;99453.44;4994186;28;20458;-80
2023/06/07 05:04:02;;;;;;;9.10;6.77;;;;;;;20.54;nan;99455.53;4992092;28;20555;-79
2023/06/07 05:06:37;;;;;;;8.05;7.15;;;;;;;21.09;nan;99450.53;5010587;28;20426;-80
2023/06/07 05:09:04;;;;;;;7.53;6.93;;;;;;;21.47;nan;99445.44;4994626;28;20681;-80
2023/06/07 05:11:30;;;;;;;7.33;6.20;;;;;;;21.79;nan;99452.53;4993198;28;20532;-79
2023/06/07 05:13:56;;;;;;;7.67;6.97;;;;;;;22.10;nan;99439.19;5010246;28;21076;-79
2023/06/07 05:16:21;;;;;;;7.53;6.80;;;;;;;22.39;nan;99443.06;4994699;28;20222;-80
2023/06/07 05:18:48;;;;;;;8.00;6.30;;;;;;;22.65;nan;99443.50;4992103;28;20217;-80
2023/06/07 05:21:15;;;;;;;6.27;5.87;;;;;;;22.99;nan;99452.13;5009539;28;20208;-80
2023/06/07 05:23:41;;;;;;;10.53;7.80;;;;;;;23.22;nan;99449.38;4993272;28;20465;-80
2023/06/07 05:26:07;;;;;;;7.40;6.70;;;;;;;23.34;nan;99446.09;5011642;28;20445;-80
2023/06/07 05:28:34;;;;;;;6.37;5.77;;;;;;;23.54;nan;99451.72;4993874;28;20465;-80
2023/06/07 05:30:59;;;;;;;6.20;5.60;;;;;;;23.83;nan;99445.53;4993300;28;20456;-81
2023/06/07 05:33:28;;;;;;;6.87;6.10;;;;;;;24.08;nan;99443.34;5010213;28;20456;-79
2023/06/07 05:35:54;;;;;;;10.37;5.77;;;;;;;24.35;nan;99451.69;4995577;28;21037;-80
2023/06/07 05:38:20;;;;;;;7.47;6.87;;;;;;;24.63;nan;99448.28;4993169;28;20439;-80
2023/06/07 05:40:46;;;;;;;6.10;5.50;;;;;;;24.85;nan;99452.63;4994208;28;20778;-80
2023/06/07 05:43:12;;;;;;;7.53;6.10;;;;;;;25.04;nan;99451.13;4992126;28;20456;-80
2023/06/07 05:45:40;;;;;;;9.60;6.20;;;;;;;25.27;nan;99456.25;4986652;28;20231;-80
2023/06/07 05:48:06;;;;;;;13.90;6.40;;;;;;;25.47;nan;99447.50;4987283;28;21122;-80
2023/06/07 05:50:33;;;;;;;7.00;6.40;;;;;;;25.66;nan;99451.34;4990391;28;20518;-80
2023/06/07 05:52:59;;;;;;;7.90;7.07;;;;;;;25.70;nan;99452.59;5007722;28;20461;-80
2023/06/07 05:55:25;;;;;;;7.40;6.80;;;;;;;25.73;nan;99453.00;5008845;28;20198;-80
2023/06/07 05:57:51;;;;;;;7.70;6.30;;;;;;;25.81;nan;99450.16;5008485;28;20208;-80
2023/06/07 06:00:17;;;;;;;7.00;6.40;;;;;;;25.93;nan;99449.63;5010029;28;20461;-80
2023/06/07 06:02:45;;;;;;;9.10;6.37;;;;;;;25.98;nan;99450.69;5013029;28;20468;-80
2023/06/07 06:05:11;;;;;;;6.17;5.57;;;;;;;26.12;nan;99450.72;5009887;28;20865;-80
2023/06/07 06:07:37;;;;;;;6.40;5.67;;;;;;;26.29;nan;99449.31;5009534;28;20457;-80
2023/06/07 06:10:04;;;;;;;6.03;5.53;;;;;;;26.45;nan;99454.31;5010153;28;20508;-80
2023/06/07 06:12:30;;;;;;;7.30;6.60;;;;;;;26.64;nan;99454.59;5010253;28;20693;-80
2023/06/07 06:14:55;;;;;;;6.47;5.83;;;;;;;26.88;nan;99459.38;5010108;28;20461;-80
2023/06/07 06:17:21;;;;;;;6.90;6.20;;;;;;;27.05;nan;99459.78;5011313;28;20492;-80
2023/06/07 06:19:47;;;;;;;7.33;6.70;;;;;;;27.10;nan;99459.97;5008380;28;20307;-80
2023/06/07 06:22:12;;;;;;;6.30;5.70;;;;;;;27.06;nan;99461.44;5007880;28;20567;-80
2023/06/07 06:24:38;;;;;;;7.27;6.10;;;;;;;27.18;nan;99452.75;5010478;28;20215;-80
2023/06/07 06:27:06;;;;;;;7.60;6.90;;;;;;;27.41;nan;99461.22;5009247;28;20373;-80
2023/06/07 06:29:31;;;;;;;7.90;6.43;;;;;;;27.59;nan;99461.38;5007809;28;20690;-80
2023/06/07 06:31:57;;;;;;;6.03;5.53;;;;;;;27.74;nan;99455.72;5008878;28;20477;-80
2023/06/07 06:34:23;;;;;;;6.40;5.77;;;;;;;27.96;nan;99458.16;5009097;28;20702;-80
2023/06/07 06:36:49;;;;;;;8.70;5.27;;;;;;;28.15;nan;99456.41;5008195;28;20836;-80
2023/06/07 06:39:14;;;;;;;8.10;6.83;;;;;;;28.29;nan;99460.69;5008998;28;20450;-80
2023/06/07 06:41:40;;;;;;;8.83;5.20;;;;;;;28.46;nan;99458.34;5009989;28;20235;-78
2023/06/07 06:44:08;;;;;;;6.40;5.80;;;;;;;28.52;nan;99456.66;4993547;28;20196;-80
2023/06/07 06:46:34;;;;;;;6.03;5.43;;;;;;;28.62;nan;99463.22;5006879;28;20462;-80
2023/06/07 06:49:00;;;;;;;6.07;5.40;;;;;;;28.80;nan;99457.06;5010736;28;20249;-80
2023/06/07 06:51:25;;;;;;;6.53;5.93;;;;;;;28.93;nan;99453.44;5007518;28;20564;-80
2023/06/07 06:53:50;;;;;;;6.83;6.00;;;;;;;28.83;nan;99453.09;5009145;28;20211;-80
2023/06/07 06:56:16;;;;;;;6.77;6.07;;;;;;;28.57;nan;99452.25;5008688;28;20224;-80
2023/06/07 06:58:42;;;;;;;7.07;5.20;;;;;;;28.39;nan;99465.63;5006973;28;20204;-80
2023/06/07 07:01:08;;;;;;;6.70;5.17;;;;;;;28.41;nan;99456.28;5006560;28;20963;-80
2023/06/07 07:03:33;;;;;;;5.80;5.30;;;;;;;28.57;nan;99460.34;5010045;28;21082;-80
2023/06/07 07:05:58;;;;;;;6.87;6.10;;;;;;;28.75;nan;99464.16;5009910;28;20444;-80
2023/06/07 07:08:25;;;;;;;5.13;4.73;;;;;;;28.87;nan;99467.84;5012165;28;20824;-81
2023/06/07 07:10:50;;;;;;;5.97;5.47;;;;;;;29.14;nan;99463.06;5009017;28;20223;-80
2023/06/07 07:16:06;;;;;;;5.90;5.20;;;;;;;29.16;nan;99463.63;4923583;28;20221;-78
2023/06/07 07:18:31;;;;;;;6.07;5.57;;;;;;;29.22;nan;99465.47;4939135;28;20465;-78
2023/06/07 07:20:58;;;;;;;5.60;5.10;;;;;;;29.34;nan;99469.09;4951593;28;20213;-78
2023/06/07 07:23:23;;;;;;;6.27;5.67;;;;;;;29.41;nan;99474.44;4952865;28;20463;-78
2023/06/07 07:25:48;;;;;;;5.80;5.20;;;;;;;29.47;nan;99465.41;4972029;28;20212;-78
2023/06/07 07:28:14;;;;;;;7.60;5.60;;;;;;;29.45;nan;99469.41;4970404;28;20246;-79
2023/06/07 07:30:39;;;;;;;6.50;6.00;;;;;;;29.37;nan;99469.69;4969358;28;20228;-79
2023/06/07 07:33:05;;;;;;;6.27;5.67;;;;;;;29.38;nan;99465.94;4972361;28;20588;-78
2023/06/07 07:35:30;;;;;;;5.30;4.80;;;;;;;29.59;nan;99460.09;4971403;28;20355;-79
2023/06/07 07:38:00;;;;;;;5.50;5.03;;;;;;;29.72;nan;99467.25;4971435;28;20205;-78
2023/06/07 07:40:25;;;;;;;4.57;4.27;;;;;;;29.98;nan;99461.53;4972883;28;20211;-79
2023/06/07 07:42:51;;;;;;;5.77;5.17;;;;;;;30.12;nan;99461.34;4972529;28;20457;-78
2023/06/07 07:45:16;;;;;;;6.13;5.73;;;;;;;30.03;nan;99460.00;4972625;28;20220;-78
2023/06/07 07:47:43;;;;;;;5.00;4.60;;;;;;;29.90;nan;99459.13;4970540;28;21143;-78
2023/06/07 07:50:10;;;;;;;4.73;4.33;;;;;;;29.96;nan;99457.41;4971664;28;20336;-79
2023/06/07 07:52:35;;;;;;;4.87;4.43;;;;;;;30.19;nan;99454.81;4970424;28;20471;-78
2023/06/07 07:55:02;;;;;;;6.40;5.30;;;;;;;30.46;nan;99456.31;4972590;28;20493;-78
2023/06/07 07:57:28;;;;;;;5.13;4.63;;;;;;;30.59;nan;99446.09;4970681;28;20212;-76
2023/06/07 07:59:53;;;;;;;4.80;4.27;;;;;;;30.67;nan;99452.25;4972068;28;20460;-76
2023/06/07 08:02:18;;;;;;;6.57;5.27;;;;;;;30.70;nan;99446.34;4971347;28;20194;-76
2023/06/07 08:04:44;;;;;;;8.00;4.83;;;;;;;30.50;nan;99447.50;4971130;28;20189;-76
2023/06/07 08:07:15;;;;;;;6.60;6.00;;;;;;;30.26;nan;99453.91;4972406;28;20198;-76
2023/06/07 08:09:40;;;;;;;9.60;5.47;;;;;;;29.91;nan;99446.41;4974031;28;20224;-76
2023/06/07 08:12:07;;;;;;;5.37;4.90;;;;;;;29.65;nan;99452.97;4970539;28;20471;-76
2023/06/07 08:14:32;;;;;;;4.33;3.93;;;;;;;29.50;nan;99453.31;4986092;28;20759;-76
2023/06/07 08:16:57;;;;;;;9.83;4.37;;;;;;;29.38;nan;99450.53;4994097;28;21262;-77
2023/06/07 08:19:23;;;;;;;5.93;4.37;;;;;;;29.27;nan;99444.00;4996140;28;20226;-76
2023/06/07 08:21:48;;;;;;;5.93;4.60;;;;;;;29.27;nan;99448.56;4991686;28;20218;-76
2023/06/07 08:24:14;;;;;;;6.60;4.47;;;;;;;29.20;nan;99440.53;4984524;28;20693;-75
2023/06/07 08:26:40;;;;;;;5.30;4.13;;;;;;;29.07;nan;99444.16;4992280;28;20220;-78
2023/06/07 08:29:05;;;;;;;5.73;4.70;;;;;;;28.95;nan;99440.53;4990000;28;20245;-79
2023/06/07 08:31:31;;;;;;;4.63;3.63;;;;;;;28.82;nan;99437.94;4990347;28;20217;-78
2023/06/07 08:33:57;;;;;;;5.50;4.83;;;;;;;28.71;nan;99442.16;4992938;28;20215;-78
2023/06/07 08:36:22;;;;;;;6.40;5.70;;;;;;;28.46;nan;99439.41;4987460;28;20507;-78
2023/06/07 08:38:48;;;;;;;5.37;4.77;;;;;;;28.27;nan;99446.56;4984803;28;20208;-78
2023/06/07 08:41:14;;;;;;;5.80;5.23;;;;;;;28.23;nan;99442.66;4987120;28;20245;-79
2023/06/07 08:43:41;;;;;;;6.20;5.73;;;;;;;28.32;nan;99440.53;4985520;28;20499;-78
2023/06/07 08:46:07;;;;;;;5.07;4.67;;;;;;;28.43;nan;99442.56;4987994;28;20924;-78
2023/06/07 08:48:35;;;;;;;6.57;5.23;;;;;;;28.49;nan;99446.25;4986826;28;20463;-78
2023/06/07 08:51:02;;;;;;;6.97;5.20;;;;;;;28.40;nan;99438.38;4986635;28;20216;-79
2023/06/07 08:53:33;;;;;;;8.53;5.30;;;;;;;28.48;nan;99437.34;4968695;28;20452;-78
2023/06/07 08:56:01;;;;;;;6.13;4.90;;;;;;;28.64;nan;99433.28;4988113;28;20458;-79
2023/06/07 08:58:27;;;;;;;5.50;5.00;;;;;;;28.78;nan;99432.09;4984371;28;21198;-78
2023/06/07 09:00:53;;;;;;;6.40;5.43;;;;;;;28.98;nan;99436.53;4972034;28;20461;-78
2023/06/07 09:03:19;;;;;;;5.80;5.30;;;;;;;29.15;nan;99434.94;4988586;28;20459;-78
2023/06/07 09:05:44;;;;;;;7.37;4.23;;;;;;;29.10;nan;99440.19;4987641;28;20568;-78
2023/06/07 09:08:10;;;;;;;11.90;6.20;;;;;;;29.08;nan;99434.16;4986280;28;20208;-79
2023/06/07 09:10:35;;;;;;;7.83;5.30;;;;;;;29.08;nan;99434.16;4986369;28;21101;-79
2023/06/07 09:13:00;;;;;;;5.03;4.53;;;;;;;28.98;nan;99436.53;4988265;28;20353;-78
2023/06/07 09:15:27;;;;;;;5.50;5.00;;;;;;;28.89;nan;99436.81;4987689;28;20225;-78
2023/06/07 09:18:02;;;;;;;6.47;4.80;;;;;;;28.92;nan;99440.94;4984741;28;20320;-80
2023/06/07 09:20:31;;;;;;;5.27;4.87;;;;;;;28.96;nan;99431.34;4986792;28;20474;-76
2023/06/07 09:22:58;;;;;;;5.60;4.63;;;;;;;29.13;nan;99433.50;4985353;28;20454;-76
2023/06/07 09:25:24;;;;;;;6.30;5.10;;;;;;;29.31;nan;99434.38;4982434;28;20990;-76
2023/06/07 09:27:50;;;;;;;5.87;5.00;;;;;;;29.38;nan;99433.47;4981909;28;20502;-76
2023/06/07 09:30:17;;;;;;;5.77;5.13;;;;;;;29.47;nan;99427.53;4987157;28;20483;-78
2023/06/07 09:32:43;;;;;;;5.40;4.43;;;;;;;29.50;nan;99432.50;4983641;28;20489;-78
2023/06/07 09:35:15;;;;;;;5.00;4.50;;;;;;;29.47;nan;99432.94;4988207;28;20451;-77
2023/06/07 09:37:44;;;;;;;6.53;4.67;;;;;;;29.34;nan;99427.69;4986275;28;20243;-78
2023/06/07 09:40:10;;;;;;;6.17;4.70;;;;;;;29.27;nan;99433.19;4989551;28;20439;-78
2023/06/07 09:42:35;;;;;;;6.50;4.90;;;;;;;29.17;nan;99427.44;4988001;28;20481;-77
2023/06/07 09:45:17;;;;;;;5.10;4.30;;;;;;;29.11;nan;99428.31;4992194;28;20225;-78
2023/06/07 09:47:43;;;;;;;5.90;5.40;;;;;;;29.20;nan;99421.59;4990622;28;20550;-78
2023/06/07 09:50:10;;;;;;;5.40;4.90;;;;;;;28.95;nan;99416.19;4989227;28;21070;-78
2023/06/07 09:52:36;;;;;;;6.57;5.27;;;;;;;28.93;nan;99412.88;4988265;28;20274;-77
2023/06/07 09:55:02;;;;;;;5.87;4.67;;;;;;;29.02;nan;99418.81;4990936;28;20482;-78
2023/06/07 09:57:30;;;;;;;5.70;4.77;;;;;;;29.17;nan;99407.69;4968065;28;20467;-78
2023/06/07 10:00:17;;;;;;;4.93;4.60;;;;;;;29.29;nan;99405.88;4986925;28;20504;-77
2023/06/07 10:02:45;;;;;;;4.60;4.20;;;;;;;29.42;nan;99408.44;4986682;28;20549;-77
2023/06/07 10:05:14;;;;;;;5.37;4.90;;;;;;;29.45;nan;99404.47;4991759;28;20465;-77
2023/06/07 10:07:44;;;;;;;4.43;4.00;;;;;;;29.56;nan;99401.00;4991960;28;20474;-77
2023/06/07 10:10:11;;;;;;;5.60;4.23;;;;;;;29.70;nan;99404.38;4988381;28;20482;-78
2023/06/07 10:12:40;;;;;;;5.80;4.47;;;;;;;29.80;nan;99401.97;4987860;28;21534;-78
2023/06/07 10:15:08;;;;;;;5.67;5.03;;;;;;;29.72;nan;99396.88;4994212;28;20992;-77
2023/06/07 10:18:05;;;;;;;5.67;4.87;;;;;;;29.46;nan;99401.53;4993738;28;20699;-76
2023/06/07 10:21:11;;;;;;;4.23;3.90;;;;;;;29.45;nan;99399.88;4987199;28;20574;-77
2023/06/07 10:23:54;;;;;;;4.77;4.37;;;;;;;29.52;nan;99392.50;4993367;28;20454;-78
2023/06/07 10:26:45;;;;;;;5.20;4.70;;;;;;;29.60;nan;99393.25;4994175;28;20543;-78
2023/06/07 10:29:17;;;;;;;4.83;4.37;;;;;;;29.62;nan;99388.44;4994985;28;20512;-78
2023/06/07 10:31:51;;;;;;;4.13;3.83;;;;;;;29.70;nan;99388.97;4994983;28;21237;-78
2023/06/07 10:34:18;;;;;;;5.53;5.10;;;;;;;29.83;nan;99382.56;4992784;28;20465;-80
2023/06/07 10:36:43;;;;;;;3.90;3.60;;;;;;;29.91;nan;99376.00;4993523;28;20455;-78
2023/06/07 10:39:11;;;;;;;4.90;4.50;;;;;;;29.89;nan;99378.94;4992338;28;20484;-78
2023/06/07 10:41:37;;;;;;;5.57;4.53;;;;;;;29.91;nan;99376.00;4989686;28;20208;-79
2023/06/07 10:44:03;;;;;;;4.50;4.10;;;;;;;30.01;nan;99365.47;4990954;28;20811;-79
2023/06/07 10:46:29;;;;;;;6.00;4.10;;;;;;;30.09;nan;99365.13;4992651;28;20337;-79
2023/06/07 10:48:58;;;;;;;4.47;4.07;;;;;;;30.11;nan;99367.59;4987632;28;20462;-79
2023/06/07 10:51:43;;;;;;;4.03;3.73;;;;;;;30.06;nan;99359.34;4992308;28;20216;-79
2023/06/07 10:54:09;;;;;;;4.30;3.90;;;;;;;30.07;nan;99355.56;4991547;28;20467;-79
2023/06/07 10:56:36;;;;;;;4.27;3.90;;;;;;;30.14;nan;99359.84;4992794;28;20441;-80
2023/06/07 10:59:13;;;;;;;3.50;3.20;;;;;;;30.22;nan;99355.97;4989734;28;20798;-79
2023/06/07 11:01:39;;;;;;;4.53;4.13;;;;;;;30.09;nan;99348.88;4987705;28;20481;-79
2023/06/07 11:04:04;;;;;;;3.90;3.60;;;;;;;29.98;nan;99353.19;4990643;28;20459;-79
2023/06/07 11:06:33;;;;;;;3.93;3.37;;;;;;;29.83;nan;99360.91;4989717;28;20199;-80
2023/06/07 11:09:22;;;;;;;5.40;4.40;;;;;;;29.78;nan;99353.47;4988385;28;20646;-79
2023/06/07 11:11:47;;;;;;;3.60;3.30;;;;;;;29.82;nan;99353.03;4977059;28;20452;-80
2023/06/07 11:14:13;;;;;;;4.23;3.83;;;;;;;29.88;nan;99346.69;4985186;28;20529;-78
2023/06/07 11:16:40;;;;;;;5.63;3.77;;;;;;;29.98;nan;99357.78;4984990;28;20193;-78
2023/06/07 11:19:17;;;;;;;4.20;3.73;;;;;;;30.13;nan;99346.53;4986149;28;20456;-78
2023/06/07 11:21:58;;;;;;;4.70;4.00;;;;;;;30.24;nan;99342.22;4982532;28;20457;-78
2023/06/07 11:24:24;;;;;;;3.20;2.90;;;;;;;30.39;nan;99342.59;4967798;28;21113;-78
2023/06/07 11:26:50;;;;;;;3.70;3.40;;;;;;;30.45;nan;99338.13;4982310;28;20519;-79
2023/06/07 11:29:20;;;;;;;4.33;4.03;;;;;;;30.44;nan;99337.31;4983855;28;20455;-78
2023/06/07 11:31:47;;;;;;;11.83;4.13;;;;;;;30.27;nan;99328.19;4984635;28;21609;-78
2023/06/07 11:34:14;;;;;;;4.10;3.70;;;;;;;30.14;nan;99329.22;4985017;28;20526;-78
2023/06/07 11:36:41;;;;;;;4.17;3.77;;;;;;;30.08;nan;99328.25;4980391;28;20469;-78
2023/06/07 11:39:08;;;;;;;5.40;3.93;;;;;;;30.06;nan;99319.53;4984699;28;20460;-78
2023/06/07 11:41:34;;;;;;;4.20;3.90;;;;;;;29.98;nan;99311.75;4983429;28;20872;-76
2023/06/07 11:44:03;;;;;;;4.07;3.70;;;;;;;29.67;nan;99310.94;4985088;28;20817;-77
2023/06/07 11:46:35;;;;;;;4.07;3.67;;;;;;;29.37;nan;99315.47;4984017;28;20459;-77
2023/06/07 11:49:07;;;;;;;5.00;3.87;;;;;;;29.37;nan;99310.06;4981609;28;20462;-77
2023/06/07 11:51:33;;;;;;;4.70;4.30;;;;;;;29.38;nan;99309.00;4984959;28;20489;-76
2023/06/07 11:53:59;;;;;;;6.90;4.50;;;;;;;29.44;nan;99314.34;4986159;28;20459;-76
2023/06/07 11:56:26;;;;;;;4.30;3.90;;;;;;;29.50;nan;99304.47;4984544;28;20208;-76